This is the latest recevied weather packets stored in our database for station/object KD7CIH. If no packets are shown the sender has not sent any weather packets the latest 10 day(s).
| Time | Temp. | Humidity | Pressure | Rain* | Wind** | Luminosity | Snow |
|---|---|---|---|---|---|---|---|
| 1777422029 | 9.44° C | 34% | 1012.8 hPa | 0 mm | - | - | - |
| 1777421725 | 8.89° C | 33% | 1012.9 hPa | 0 mm | - | - | - |
| 1777421417 | 8.89° C | 34% | 1012.8 hPa | 0 mm | - | - | - |
| 1777421112 | 8.89° C | 34% | 1012.9 hPa | 0 mm | - | - | - |
| 1777420934 | 8.89° C | 36% | 1013 hPa | 0 mm | - | - | - |
| 1777420507 | 8.89° C | 37% | 1013 hPa | 0 mm | - | - | - |
| 1777420207 | 9.44° C | 37% | 1012.9 hPa | 0 mm | - | - | - |
| 1777419910 | 8.89° C | 39% | 1012.9 hPa | 0 mm | - | - | - |
| 1777419610 | 8.33° C | 43% | 1012.8 hPa | 0 mm | - | - | - |
| 1777419308 | 7.78° C | 43% | 1012.9 hPa | 0 mm | - | - | - |
| 1777419137 | 8.33° C | 43% | 1013 hPa | 0 mm | - | - | - |
| 1777418708 | 8.33° C | 45% | 1012.9 hPa | 0 mm | - | - | - |
| 1777418533 | 8.33° C | 49% | 1013 hPa | 0 mm | - | - | - |
| 1777418109 | 7.78° C | 50% | 1013.1 hPa | 0 mm | - | - | - |
| 1777417809 | 7.22° C | 51% | 1013.1 hPa | 0 mm | - | - | - |
| 1777417505 | 7.22° C | 53% | 1013.1 hPa | 0 mm | - | - | - |
| 1777417206 | 6.67° C | 60% | 1013.1 hPa | 0 mm | - | - | - |
| 1777416908 | 6.67° C | 62% | 1013 hPa | 0 mm | - | - | - |
| 1777416733 | 6.67° C | 55% | 1013 hPa | 0 mm | - | - | - |
| 1777416305 | 7.78° C | 45% | 1012.9 hPa | 0 mm | - | - | - |
| 1777416007 | 8.33° C | 41% | 1012.8 hPa | 0 mm | - | - | - |
| 1777415707 | 8.89° C | 38% | 1012.7 hPa | 0 mm | - | - | - |
| 1777415406 | 8.89° C | 40% | 1012.8 hPa | 0 mm | - | - | - |
| 1777415106 | 8.89° C | 42% | 1012.5 hPa | 0 mm | - | - | - |
| 1777414805 | 9.44° C | 36% | 1012.7 hPa | 0 mm | - | - | - |
* Rain latest hour (hover to see other rain measurements)
** Current wind speed in m/s (hover to see current wind gust speed)